createdAt,value
2018-02-07T00:00:04.754Z,99.99
2018-02-07T00:05:03.442Z,99.99
2018-02-07T00:10:03.169Z,99.99
2018-02-07T00:15:03.586Z,99.99
2018-02-07T00:20:03.042Z,99.99
2018-02-07T00:25:03.557Z,99.99
2018-02-07T00:30:03.028Z,99.99
2018-02-07T00:35:03.474Z,99.99
2018-02-07T00:40:02.994Z,99.99
2018-02-07T00:45:03.485Z,99.99
2018-02-07T00:50:02.942Z,99.99
2018-02-07T00:55:03.535Z,99.99
2018-02-07T01:00:02.964Z,99.99
2018-02-07T01:05:03.547Z,99.99
2018-02-07T01:10:03.048Z,99.99
2018-02-07T01:15:03.492Z,99.99
2018-02-07T01:20:02.985Z,99.99
2018-02-07T01:25:03.469Z,99.99
2018-02-07T01:30:02.938Z,99.99
2018-02-07T01:35:03.334Z,99.99
2018-02-07T01:40:02.877Z,99.99
2018-02-07T01:45:03.319Z,99.99
2018-02-07T01:50:02.813Z,99.99
2018-02-07T01:55:03.272Z,99.99
2018-02-07T02:00:03.732Z,99.99
2018-02-07T02:05:03.369Z,99.99
2018-02-07T02:10:02.880Z,99.99
2018-02-07T02:15:03.304Z,99.99
2018-02-07T02:20:02.722Z,99.99
2018-02-07T02:25:03.186Z,99.99
2018-02-07T02:30:02.822Z,99.99
2018-02-07T02:35:03.285Z,99.99
2018-02-07T02:40:02.857Z,99.99
2018-02-07T02:45:03.397Z,99.99
2018-02-07T02:50:02.852Z,99.99
2018-02-07T02:55:03.278Z,99.99
2018-02-07T03:00:03.744Z,99.99
2018-02-07T03:05:03.257Z,99.99
2018-02-07T03:10:03.731Z,99.99
2018-02-07T03:15:03.228Z,99.99
2018-02-07T03:20:03.686Z,99.99
2018-02-07T03:25:03.113Z,99.99
2018-02-07T03:30:03.615Z,99.99
2018-02-07T03:35:03.099Z,99.99
2018-02-07T03:40:03.601Z,99.99
2018-02-07T03:45:03.084Z,99.99
2018-02-07T03:50:03.617Z,99.99
2018-02-07T03:55:03.042Z,99.99
2018-02-07T04:00:03.538Z,99.99
2018-02-07T04:05:03.075Z,99.99
2018-02-07T04:10:03.607Z,99.99
2018-02-07T04:15:03.054Z,99.99
2018-02-07T04:20:03.538Z,99.99
2018-02-07T04:25:03.036Z,99.99
2018-02-07T04:30:03.477Z,99.99
2018-02-07T04:35:02.915Z,99.99
2018-02-07T04:40:03.421Z,99.99
2018-02-07T04:45:02.941Z,99.99
2018-02-07T04:50:03.376Z,99.99
2018-02-07T04:55:02.849Z,99.99
2018-02-07T05:00:03.305Z,99.99
2018-02-07T05:05:02.821Z,99.99
2018-02-07T05:10:03.281Z,99.99
2018-02-07T05:20:02.893Z,99.99
2018-02-07T05:25:03.377Z,99.99
2018-02-07T05:30:02.971Z,99.99
2018-02-07T05:35:03.400Z,99.99
2018-02-07T05:40:02.844Z,99.99
2018-02-07T05:45:03.362Z,99.99
2018-02-07T05:50:02.758Z,99.99
2018-02-07T05:55:03.326Z,99.99
2018-02-07T06:00:03.034Z,99.99
2018-02-07T06:05:03.590Z,99.99
2018-02-07T06:10:03.236Z,99.99
2018-02-07T06:15:03.761Z,99.99
2018-02-07T06:20:03.220Z,99.99
2018-02-07T06:25:03.709Z,99.99
2018-02-07T06:30:03.124Z,99.99
2018-02-07T06:35:03.606Z,99.99
2018-02-07T06:40:03.114Z,99.99
2018-02-07T06:45:03.591Z,99.99
2018-02-07T06:50:03.251Z,99.99
2018-02-07T06:55:03.711Z,99.99
2018-02-07T07:00:03.405Z,99.99
2018-02-07T07:05:02.953Z,99.99
2018-02-07T07:10:03.409Z,99.99
2018-02-07T07:15:02.790Z,99.99
2018-02-07T07:20:03.272Z,99.99
2018-02-07T07:25:03.763Z,99.99
2018-02-07T07:30:03.321Z,99.99
2018-02-07T07:35:02.712Z,99.99
2018-02-07T07:40:03.208Z,99.99
2018-02-07T07:45:03.693Z,99.99
2018-02-07T07:50:03.236Z,99.99
2018-02-07T07:55:03.733Z,99.99
2018-02-07T08:00:02.953Z,99.99
2018-02-07T08:05:03.410Z,99.99
2018-02-07T08:10:02.928Z,99.99
2018-02-07T08:15:03.421Z,99.99
2018-02-07T08:20:02.966Z,99.99
2018-02-07T08:25:03.440Z,99.99
2018-02-07T08:30:02.845Z,99.99
2018-02-07T08:35:03.354Z,99.99
2018-02-07T08:40:02.905Z,99.99
2018-02-07T08:45:03.428Z,99.99
2018-02-07T08:50:03.013Z,99.99
2018-02-07T08:55:03.519Z,99.99
2018-02-07T09:00:02.954Z,99.99
2018-02-07T09:05:03.489Z,99.99
2018-02-07T09:10:02.982Z,99.99
2018-02-07T09:15:03.463Z,99.99
2018-02-07T09:20:02.904Z,99.99
2018-02-07T09:25:03.304Z,99.99
2018-02-07T09:30:03.747Z,99.99
2018-02-07T09:35:03.261Z,99.99
2018-02-07T09:40:02.851Z,99.99
2018-02-07T09:45:03.242Z,99.99
2018-02-07T09:50:03.761Z,99.99
2018-02-07T09:55:03.261Z,99.99
2018-02-07T10:00:03.744Z,99.99
2018-02-07T10:05:03.254Z,98.16
2018-02-07T10:10:02.919Z,96.88
2018-02-07T10:15:03.460Z,96.26
2018-02-07T10:20:03.317Z,90.94
2018-02-07T10:25:02.821Z,88.28
2018-02-07T10:30:03.298Z,87.05
2018-02-07T10:35:02.907Z,85.28
2018-02-07T10:40:03.398Z,84.66
2018-02-07T10:45:02.919Z,83.42
2018-02-07T10:50:03.541Z,82.04
2018-02-07T10:55:03.037Z,81.85
2018-02-07T11:00:03.528Z,80.71
2018-02-07T11:05:02.959Z,78.85
2018-02-07T11:10:03.434Z,77.61
2018-02-07T11:15:02.852Z,75.55
2018-02-07T11:20:03.405Z,73.13
2018-02-07T11:25:02.829Z,72.97
2018-02-07T11:30:03.293Z,72.17
2018-02-07T11:35:02.811Z,72.12
2018-02-07T11:40:03.364Z,72.75
2018-02-07T11:45:02.845Z,72.56
2018-02-07T11:50:03.345Z,72.31
2018-02-07T11:55:02.796Z,71.36
2018-02-07T12:00:03.251Z,71.17
2018-02-07T12:05:02.900Z,72.46
2018-02-07T12:10:03.604Z,72.78
2018-02-07T12:15:03.098Z,72.12
2018-02-07T12:20:03.567Z,71.26
2018-02-07T12:25:02.933Z,70.44
2018-02-07T12:30:03.374Z,69.96
2018-02-07T12:35:02.866Z,69.74
2018-02-07T12:40:03.390Z,69.68
2018-02-07T12:45:02.949Z,69.54
2018-02-07T12:50:03.490Z,69.87
2018-02-07T12:55:02.895Z,68.44
2018-02-07T13:00:03.455Z,68.44
2018-02-07T13:05:02.964Z,68.3
2018-02-07T13:10:03.514Z,68.02
2018-02-07T13:15:02.958Z,68.84
2018-02-07T13:20:03.384Z,68.94
2018-02-07T13:25:02.897Z,68.05
2018-02-07T13:30:03.436Z,69
2018-02-07T13:40:03.589Z,69.57
2018-02-07T13:45:03.126Z,69.42
2018-02-07T13:50:03.886Z,68.84
2018-02-07T13:55:03.392Z,68.37
2018-02-07T14:00:02.897Z,67.95
2018-02-07T14:05:03.384Z,69.1
2018-02-07T14:10:03.202Z,68.96
2018-02-07T14:15:03.706Z,68.59
2018-02-07T14:20:03.241Z,69.35
2018-02-07T14:25:03.753Z,69.5
2018-02-07T14:30:03.653Z,70.17
2018-02-07T14:35:03.193Z,71.31
2018-02-07T14:40:03.674Z,71.06
2018-02-07T14:45:03.031Z,70.87
2018-02-07T14:50:03.524Z,70.39
2018-02-07T14:55:02.953Z,70.3
2018-02-07T15:00:03.385Z,70.2
2018-02-07T15:05:02.858Z,70.26
2018-02-07T15:10:03.366Z,70.36
2018-02-07T15:15:02.974Z,70.54
2018-02-07T15:20:03.393Z,70.61
2018-02-07T15:25:02.868Z,70.54
2018-02-07T15:30:03.306Z,70.64
2018-02-07T15:35:02.740Z,70.51
2018-02-07T15:40:03.313Z,71.33
2018-02-07T15:45:02.783Z,71.52
2018-02-07T15:50:03.320Z,71.67
2018-02-07T15:55:02.836Z,72.44
2018-02-07T16:00:03.323Z,73.16
2018-02-07T16:05:02.829Z,74.16
2018-02-07T16:10:03.398Z,75.36
2018-02-07T16:15:02.822Z,76.46
2018-02-07T16:20:03.288Z,77.59
2018-02-07T16:25:02.804Z,78.92
2018-02-07T16:30:03.261Z,80.02
2018-02-07T16:35:03.752Z,80.77
2018-02-07T16:40:03.243Z,82.06
2018-02-07T16:45:02.807Z,82.63
2018-02-07T16:50:03.403Z,83.1
2018-02-07T16:55:02.932Z,83.86
2018-02-07T17:00:03.358Z,84.77
2018-02-07T17:05:02.801Z,85.05
2018-02-07T17:10:03.398Z,85.42
2018-02-07T17:15:02.921Z,85.61
2018-02-07T17:20:03.420Z,86.18
2018-02-07T17:25:02.958Z,86.9
2018-02-07T17:30:03.511Z,86.8
2018-02-07T17:35:02.957Z,87.27
2018-02-07T17:40:03.442Z,87.74
2018-02-07T17:45:02.909Z,88.31
2018-02-07T17:50:03.392Z,88.79
2018-02-07T17:55:02.858Z,88.74
2018-02-07T18:00:03.292Z,89.03
2018-02-07T18:05:02.774Z,89.22
2018-02-07T18:10:03.307Z,88.93
2018-02-07T18:15:02.780Z,88.46
2018-02-07T18:20:03.316Z,88.08
2018-02-07T18:25:02.823Z,87.89
2018-02-07T18:30:03.245Z,87.7
2018-02-07T18:35:02.796Z,87.98
2018-02-07T18:40:03.250Z,88.46
2018-02-07T18:45:03.743Z,88.32
2018-02-07T18:50:03.206Z,88.6
2018-02-07T18:55:03.665Z,88.79
2018-02-07T19:00:03.110Z,88.6
2018-02-07T19:05:03.534Z,88.6
2018-02-07T19:10:03.103Z,89.17
2018-02-07T19:15:03.630Z,89.54
2018-02-07T19:20:03.173Z,89.73
2018-02-07T19:25:03.675Z,90.3
2018-02-07T19:30:03.188Z,90.49
2018-02-07T19:35:03.684Z,90.87
2018-02-07T19:40:03.275Z,91.25
2018-02-07T19:45:03.766Z,91.53
2018-02-07T19:50:03.233Z,91.58
2018-02-07T19:55:03.758Z,91.58
2018-02-07T20:00:03.272Z,91.67
2018-02-07T20:05:02.821Z,92.14
2018-02-07T20:10:03.340Z,92.43
2018-02-07T20:15:02.800Z,92.52
2018-02-07T20:20:03.360Z,92.9
2018-02-07T20:25:02.828Z,93.47
2018-02-07T20:30:03.326Z,93.94
2018-02-07T20:35:02.877Z,94.03
2018-02-07T20:40:03.575Z,94.32
2018-02-07T20:45:03.401Z,94.79
2018-02-07T20:50:02.985Z,94.79
2018-02-07T20:55:03.503Z,95.26
2018-02-07T21:00:02.930Z,96.01
2018-02-07T21:05:03.382Z,95.92
2018-02-07T21:10:03.006Z,96.01
2018-02-07T21:15:03.491Z,97.05
2018-02-07T21:20:03.056Z,97.43
2018-02-07T21:25:03.522Z,97.72
2018-02-07T21:30:02.951Z,97.72
2018-02-07T21:35:03.432Z,98.66
2018-02-07T21:40:02.974Z,99.32
2018-02-07T21:45:03.438Z,99.99
2018-02-07T21:50:02.932Z,99.99
2018-02-07T21:55:03.372Z,99.99
2018-02-07T22:00:03.269Z,99.99
2018-02-07T22:05:03.742Z,99.99
2018-02-07T22:10:03.298Z,99.99
2018-02-07T22:15:02.767Z,99.99
2018-02-07T22:20:03.280Z,99.99
2018-02-07T22:25:03.743Z,99.99
2018-02-07T22:30:03.563Z,99.99
2018-02-07T22:35:03.162Z,99.99
2018-02-07T22:40:03.731Z,99.99
2018-02-07T22:45:03.237Z,99.99
2018-02-07T22:50:03.814Z,99.99
2018-02-07T22:55:03.336Z,99.99
2018-02-07T23:00:03.021Z,99.99
2018-02-07T23:05:02.861Z,99.99
2018-02-07T23:10:03.374Z,99.99
2018-02-07T23:15:02.837Z,99.99
2018-02-07T23:20:03.402Z,99.99
2018-02-07T23:25:02.847Z,99.99
2018-02-07T23:30:03.302Z,99.99
2018-02-07T23:35:02.870Z,99.99
2018-02-07T23:40:03.402Z,99.99
2018-02-07T23:45:02.830Z,99.99
2018-02-07T23:50:03.280Z,99.99
2018-02-07T23:55:03.739Z,99.99
